Time;durP1;ratioP1;P1;durP2;ratioP2;P2;SDS_P1;SDS_P2;PMS_P1;PMS_P2;Temp;Humidity;BMP_temperature;BMP_pressure;BME280_temperature;BME280_humidity;BME280_pressure;Samples;Min_cycle;Max_cycle;Signal;HPM_P1;HPM_P2
2022/09/06 00:01:41;;;;;;;4.88;2.42;;;;;;;21.06;57.23;101333.41;5011091;28;20026;-77
2022/09/06 00:04:07;;;;;;;10.75;2.75;;;;;;;21.06;57.48;101333.41;4993025;28;20091;-76
2022/09/06 00:06:32;;;;;;;8.70;1.90;;;;;;;21.07;58.06;101335.00;4999983;28;20503;-77
2022/09/06 00:08:58;;;;;;;7.68;2.05;;;;;;;21.05;58.42;101349.41;5001587;28;20057;-76
2022/09/06 00:11:24;;;;;;;11.98;2.63;;;;;;;21.12;58.35;101372.09;4996199;28;20582;-77
2022/09/06 00:13:49;;;;;;;13.48;2.25;;;;;;;21.07;59.12;101382.44;5027806;28;20380;-77
2022/09/06 00:16:19;;;;;;;6.45;1.95;;;;;;;21.05;59.75;101394.22;4994048;28;20038;-75
2022/09/06 00:18:45;;;;;;;5.70;1.83;;;;;;;21.09;59.92;101417.31;4995729;28;20022;-77
2022/09/06 00:21:21;;;;;;;7.70;2.40;;;;;;;21.05;61.34;101418.75;4998661;28;20494;-77
2022/09/06 00:23:47;;;;;;;9.63;1.90;;;;;;;20.94;61.85;101437.88;4994968;28;20030;-77
2022/09/06 00:26:13;;;;;;;5.38;1.80;;;;;;;20.86;62.70;101443.38;4988380;28;20106;-77
2022/09/06 00:28:39;;;;;;;8.43;1.67;;;;;;;20.85;63.27;101437.31;5007852;28;20581;-76
2022/09/06 00:31:13;;;;;;;3.47;1.70;;;;;;;20.86;63.77;101422.31;5008061;28;20030;-77
2022/09/06 00:33:39;;;;;;;4.15;2.08;;;;;;;20.82;63.93;101397.41;4999381;28;20509;-76
2022/09/06 00:36:04;;;;;;;6.55;2.10;;;;;;;20.88;64.18;101388.63;4994567;28;20073;-76
2022/09/06 00:38:30;;;;;;;16.52;2.25;;;;;;;20.84;64.33;101379.53;4997666;28;20502;-76
2022/09/06 00:40:56;;;;;;;5.93;2.45;;;;;;;20.87;64.11;101377.31;4997200;28;20325;-76
2022/09/06 00:43:22;;;;;;;6.50;2.10;;;;;;;20.74;64.49;101370.25;4998594;28;21612;-76
2022/09/06 00:45:48;;;;;;;5.13;1.60;;;;;;;20.72;64.57;101364.41;4994622;28;20034;-76
2022/09/06 00:48:14;;;;;;;6.15;1.92;;;;;;;20.95;64.11;101382.31;4998576;28;20045;-76
2022/09/06 00:50:40;;;;;;;5.05;2.25;;;;;;;20.93;64.20;101376.44;4992967;28;20030;-76
2022/09/06 00:53:05;;;;;;;5.00;1.90;;;;;;;20.81;64.91;101380.75;4993020;28;20056;-77
2022/09/06 00:55:31;;;;;;;4.93;2.03;;;;;;;20.70;65.57;101387.50;4993633;28;20081;-76
2022/09/06 00:57:56;;;;;;;6.65;2.25;;;;;;;20.65;65.88;101400.50;5023301;28;20107;-76
2022/09/06 01:00:22;;;;;;;6.65;2.00;;;;;;;20.69;66.19;101403.53;4995066;28;20030;-77
2022/09/06 01:02:48;;;;;;;3.33;1.58;;;;;;;20.69;66.30;101400.88;5022377;28;20714;-77
2022/09/06 01:05:14;;;;;;;5.78;1.83;;;;;;;20.60;66.51;101395.03;4994781;28;20034;-77
2022/09/06 01:07:52;;;;;;;4.55;1.98;;;;;;;20.59;66.89;101410.00;5010892;28;20029;-77
2022/09/06 01:10:51;;;;;;;3.67;1.80;;;;;;;20.57;67.44;101411.25;4994416;28;20054;-76
2022/09/06 01:13:22;;;;;;;5.63;1.98;;;;;;;20.56;67.85;101399.06;4994670;28;20447;-77
2022/09/06 01:15:57;;;;;;;4.53;2.05;;;;;;;20.44;68.81;101417.34;4994640;28;20061;-77
2022/09/06 01:18:35;;;;;;;3.25;1.52;;;;;;;20.36;70.04;101413.13;4993899;28;20034;-76
2022/09/06 01:21:00;;;;;;;5.35;1.95;;;;;;;20.31;70.79;101409.47;4991716;28;20096;-76
2022/09/06 01:23:42;;;;;;;9.45;2.45;;;;;;;20.26;71.97;101402.19;4990221;28;20050;-76
2022/09/06 01:26:56;;;;;;;5.03;1.93;;;;;;;20.23;72.98;101403.41;4995452;28;20490;-76
2022/09/06 01:29:30;;;;;;;3.35;1.67;;;;;;;20.22;73.91;101401.78;4993028;28;20068;-76
2022/09/06 01:32:04;;;;;;;5.22;2.08;;;;;;;20.23;74.70;101389.44;4992388;28;20026;-75
2022/09/06 01:34:45;;;;;;;3.63;1.77;;;;;;;20.14;74.74;101386.22;4994445;28;20033;-75
2022/09/06 01:37:14;;;;;;;6.57;2.00;;;;;;;20.13;75.21;101392.47;4996602;28;20057;-75
2022/09/06 01:39:41;;;;;;;3.63;1.98;;;;;;;20.03;75.89;101392.91;4991543;28;20331;-76
2022/09/06 01:42:18;;;;;;;2.63;1.90;;;;;;;19.93;76.17;101391.69;4994020;28;20036;-76
2022/09/06 01:44:49;;;;;;;5.63;1.98;;;;;;;19.91;76.44;101386.66;4989601;28;20042;-76
2022/09/06 01:47:36;;;;;;;4.32;1.95;;;;;;;19.92;76.03;101376.94;4999284;28;20036;-76
2022/09/06 01:50:02;;;;;;;7.22;1.60;;;;;;;19.94;75.96;101375.69;4994695;28;20399;-76
2022/09/06 01:52:43;;;;;;;5.72;1.85;;;;;;;19.95;76.06;101369.44;4992891;28;20045;-76
2022/09/06 01:55:40;;;;;;;3.45;2.05;;;;;;;19.93;75.40;101365.38;4993497;28;20038;-76
2022/09/06 01:58:30;;;;;;;4.18;1.48;;;;;;;19.91;75.78;101362.13;5020790;28;20058;-76
2022/09/06 02:01:36;;;;;;;3.17;1.70;;;;;;;19.89;76.34;101362.38;4990398;28;20034;-76
2022/09/06 02:04:27;;;;;;;4.18;1.65;;;;;;;19.89;76.80;101353.63;5007534;28;20483;-76
2022/09/06 02:07:19;;;;;;;2.80;1.52;;;;;;;19.91;76.79;101348.97;4992074;28;20038;-76
2022/09/06 02:09:51;;;;;;;2.65;2.00;;;;;;;19.81;77.11;101336.25;4992262;28;20164;-76
2022/09/06 02:12:18;;;;;;;5.57;1.92;;;;;;;19.76;77.52;101338.66;4996445;28;20519;-75
2022/09/06 02:15:10;;;;;;;3.08;2.38;;;;;;;19.72;77.95;101338.28;4990295;28;20285;-76
2022/09/06 02:17:42;;;;;;;5.25;2.35;;;;;;;19.72;77.86;101334.81;5005190;28;20034;-76
2022/09/06 02:20:17;;;;;;;4.35;2.17;;;;;;;19.69;78.04;101336.03;4992830;28;20027;-75
2022/09/06 02:22:46;;;;;;;4.65;1.95;;;;;;;19.67;79.00;101321.47;4993598;28;20490;-76
2022/09/06 02:25:21;;;;;;;3.35;1.92;;;;;;;19.69;79.36;101319.44;4993287;28;20380;-75
2022/09/06 02:27:46;;;;;;;4.63;1.90;;;;;;;19.70;79.41;101315.78;5003641;28;20042;-75
2022/09/06 02:30:12;;;;;;;4.30;2.40;;;;;;;19.72;79.42;101322.50;4991373;28;20476;-75
2022/09/06 02:32:44;;;;;;;3.47;2.05;;;;;;;19.56;80.38;101328.94;5006911;28;20035;-76
2022/09/06 02:35:15;;;;;;;4.03;2.58;;;;;;;19.37;82.00;101324.50;4993159;28;20516;-76
2022/09/06 02:37:41;;;;;;;2.47;1.77;;;;;;;19.29;82.72;101322.03;5023021;28;20034;-76
2022/09/06 02:40:08;;;;;;;7.03;2.83;;;;;;;19.35;82.30;101324.69;4992047;28;20042;-76
2022/09/06 02:42:34;;;;;;;4.32;2.00;;;;;;;19.24;83.17;101323.47;4992318;28;20034;-76
2022/09/06 02:45:00;;;;;;;3.53;2.10;;;;;;;19.23;83.00;101313.97;4993015;28;20064;-76
2022/09/06 02:47:25;;;;;;;4.80;2.50;;;;;;;19.29;82.99;101324.69;4991547;28;20045;-76
2022/09/06 02:49:51;;;;;;;3.28;2.00;;;;;;;19.34;83.09;101314.38;4995556;28;20038;-75
2022/09/06 02:52:16;;;;;;;4.47;2.03;;;;;;;19.36;83.23;101312.34;5008847;28;20228;-76
2022/09/06 02:54:42;;;;;;;7.97;2.40;;;;;;;19.38;83.52;101310.31;4978688;28;20037;-75
2022/09/06 02:57:07;;;;;;;4.82;2.92;;;;;;;19.35;83.42;101295.78;4989643;28;20034;-76
2022/09/06 02:59:33;;;;;;;5.35;3.13;;;;;;;19.24;83.87;101289.28;4989653;28;20708;-75
2022/09/06 03:01:58;;;;;;;6.45;2.80;;;;;;;19.21;84.15;101278.38;4991887;28;20030;-75
2022/09/06 03:04:24;;;;;;;4.75;2.38;;;;;;;19.21;84.23;101271.31;5000595;28;20326;-76
2022/09/06 03:06:49;;;;;;;6.05;2.60;;;;;;;19.20;84.36;101266.25;4991832;28;20034;-76
2022/09/06 03:09:15;;;;;;;5.10;3.42;;;;;;;19.16;84.10;101272.94;4991164;28;20308;-76
2022/09/06 03:11:40;;;;;;;4.57;2.83;;;;;;;19.15;84.29;101268.66;4991941;28;20035;-75
2022/09/06 03:14:06;;;;;;;6.20;3.63;;;;;;;19.17;84.05;101271.91;4994153;28;20038;-75
2022/09/06 03:16:31;;;;;;;3.85;3.00;;;;;;;19.16;84.24;101289.50;4991433;28;20140;-76
2022/09/06 03:18:57;;;;;;;4.75;3.10;;;;;;;19.16;84.34;101288.69;4996886;28;20038;-76
2022/09/06 03:21:22;;;;;;;3.60;3.10;;;;;;;19.17;84.41;101287.66;4992279;28;20038;-76
2022/09/06 03:23:48;;;;;;;6.38;3.63;;;;;;;19.13;84.22;101276.75;4993755;28;20620;-76
2022/09/06 03:26:14;;;;;;;4.63;3.10;;;;;;;19.10;84.46;101289.47;5006189;28;20478;-76
2022/09/06 03:28:39;;;;;;;6.13;3.10;;;;;;;19.10;84.41;101289.47;5019385;28;20286;-76
2022/09/06 03:31:05;;;;;;;4.78;3.25;;;;;;;19.13;84.34;101289.88;4991995;28;20117;-76
2022/09/06 03:33:30;;;;;;;5.15;2.75;;;;;;;19.14;84.68;101283.63;4997165;28;20037;-76
2022/09/06 03:35:59;;;;;;;5.65;3.35;;;;;;;19.14;84.86;101291.53;5008641;28;20053;-76
2022/09/06 03:38:26;;;;;;;9.85;3.33;;;;;;;19.10;84.91;101279.78;4991689;28;20475;-76
2022/09/06 03:40:52;;;;;;;5.22;3.83;;;;;;;19.02;85.23;101283.44;4996410;28;20052;-76
2022/09/06 03:43:19;;;;;;;6.00;3.40;;;;;;;18.98;85.36;101270.88;4993213;28;20030;-76
2022/09/06 03:45:49;;;;;;;6.03;3.25;;;;;;;18.92;85.83;101263.81;4992886;28;20038;-75
2022/09/06 03:48:16;;;;;;;5.30;2.70;;;;;;;18.91;86.07;101267.44;4996539;28;20475;-76
2022/09/06 03:50:50;;;;;;;4.68;3.22;;;;;;;18.90;86.01;101276.34;4996105;28;20034;-76
2022/09/06 03:53:17;;;;;;;6.78;3.50;;;;;;;18.87;85.84;101282.78;4991846;28;20031;-76
2022/09/06 03:55:47;;;;;;;7.88;3.45;;;;;;;18.83;85.82;101282.34;4995653;28;20503;-76
2022/09/06 03:58:13;;;;;;;4.47;3.13;;;;;;;18.84;85.44;101286.63;4993907;28;20185;-76
2022/09/06 04:00:40;;;;;;;6.72;2.70;;;;;;;18.83;85.29;101290.25;5008406;28;20034;-76
2022/09/06 04:03:05;;;;;;;7.03;4.03;;;;;;;18.77;85.50;101287.59;4992944;28;20383;-76
2022/09/06 04:05:30;;;;;;;11.85;4.53;;;;;;;18.71;86.48;101286.56;4993720;28;20037;-76
2022/09/06 04:07:56;;;;;;;6.25;3.63;;;;;;;18.58;87.43;101291.78;5000941;28;20038;-77
2022/09/06 04:10:21;;;;;;;6.25;3.30;;;;;;;18.54;87.94;101280.84;4993979;28;20390;-76
2022/09/06 04:12:47;;;;;;;8.70;3.30;;;;;;;18.56;87.74;101294.59;4996280;28;20038;-77
2022/09/06 04:15:12;;;;;;;6.18;4.00;;;;;;;18.53;87.95;101294.97;5008944;28;20037;-77
2022/09/06 04:17:38;;;;;;;6.70;3.58;;;;;;;18.49;88.12;101291.13;4980583;28;20030;-77
2022/09/06 04:20:04;;;;;;;10.40;4.15;;;;;;;18.48;88.32;101289.53;4997118;28;20501;-75
2022/09/06 04:22:29;;;;;;;14.70;4.20;;;;;;;18.39;88.50;101296.75;5003906;28;20153;-77
2022/09/06 04:24:55;;;;;;;6.28;3.17;;;;;;;18.34;88.46;101291.25;4993755;28;20081;-75
2022/09/06 04:27:20;;;;;;;6.72;3.55;;;;;;;18.33;88.40;101281.78;4997369;28;20037;-75
2022/09/06 04:29:46;;;;;;;6.25;3.22;;;;;;;18.34;88.30;101282.59;4978455;28;20902;-75
2022/09/06 04:32:11;;;;;;;6.65;3.90;;;;;;;18.32;87.64;101287.22;5009990;28;20442;-75
2022/09/06 04:34:37;;;;;;;7.05;4.07;;;;;;;18.26;87.94;101281.75;5006195;28;20098;-73
2022/09/06 04:37:02;;;;;;;6.35;3.58;;;;;;;18.23;87.94;101284.78;5008004;28;20038;-75
2022/09/06 04:39:27;;;;;;;9.13;4.20;;;;;;;18.24;87.39;101281.13;4983655;28;20021;-75
2022/09/06 04:41:53;;;;;;;8.18;4.93;;;;;;;18.23;87.29;101276.91;4998888;28;20568;-75
2022/09/06 04:44:18;;;;;;;8.82;4.43;;;;;;;18.23;87.29;101287.41;4998109;28;20041;-75
2022/09/06 04:46:44;;;;;;;7.63;3.58;;;;;;;18.17;87.96;101282.91;5004016;28;20037;-75
2022/09/06 04:49:09;;;;;;;7.97;3.60;;;;;;;18.17;87.87;101295.22;4999284;28;20037;-76
2022/09/06 04:51:36;;;;;;;7.38;3.88;;;;;;;18.15;87.68;101290.16;5021462;28;20037;-74
2022/09/06 04:54:01;;;;;;;10.23;3.58;;;;;;;18.16;87.46;101290.97;4998038;28;20247;-76
2022/09/06 04:56:27;;;;;;;6.85;3.78;;;;;;;18.17;87.30;101284.72;4999599;28;20517;-76
2022/09/06 04:58:54;;;;;;;6.15;3.75;;;;;;;18.15;87.21;101298.03;5022448;28;20038;-75
2022/09/06 05:01:19;;;;;;;7.13;3.85;;;;;;;18.15;87.22;101295.41;5011534;28;20029;-74
2022/09/06 05:03:46;;;;;;;6.18;3.58;;;;;;;18.13;87.17;101294.81;4992451;28;20517;-76
2022/09/06 05:06:18;;;;;;;6.22;3.83;;;;;;;18.08;87.26;101300.66;4994135;28;20466;-75
2022/09/06 05:08:43;;;;;;;6.10;3.00;;;;;;;18.03;87.59;101313.53;4996399;28;20034;-74
2022/09/06 05:11:09;;;;;;;9.05;3.70;;;;;;;17.99;87.82;101308.84;4998268;28;20475;-74
2022/09/06 05:13:35;;;;;;;9.02;4.22;;;;;;;17.96;87.71;101302.16;4998299;28;20103;-75
2022/09/06 05:16:02;;;;;;;11.35;4.60;;;;;;;18.03;88.23;101317.97;5000795;28;20384;-75
2022/09/06 05:18:28;;;;;;;9.95;4.85;;;;;;;17.97;88.24;101314.31;5023189;28;20487;-76
2022/09/06 05:20:54;;;;;;;12.25;5.18;;;;;;;17.86;88.84;101315.63;4995701;28;20041;-76
2022/09/06 05:23:20;;;;;;;9.32;5.18;;;;;;;17.85;88.99;101324.50;5007423;28;20045;-76
2022/09/06 05:25:46;;;;;;;9.70;4.60;;;;;;;17.79;89.53;101311.31;4977802;28;20495;-75
2022/09/06 05:28:12;;;;;;;11.00;4.97;;;;;;;17.80;89.35;101316.38;4992488;28;20034;-76
2022/09/06 05:30:38;;;;;;;9.00;5.10;;;;;;;17.87;89.44;101316.44;4996044;28;20489;-75
2022/09/06 05:33:03;;;;;;;13.07;5.50;;;;;;;17.86;89.64;101305.16;4996676;28;20035;-75
2022/09/06 05:35:29;;;;;;;11.63;5.43;;;;;;;17.94;89.41;101312.06;4995942;28;20036;-75
2022/09/06 05:37:55;;;;;;;12.10;5.55;;;;;;;17.81;90.05;101310.13;4993383;28;20069;-75
2022/09/06 05:40:20;;;;;;;11.25;6.28;;;;;;;17.72;90.74;101313.88;4986149;28;20041;-74
2022/09/06 05:42:46;;;;;;;11.98;6.18;;;;;;;17.69;91.39;101311.66;5002578;28;20041;-75
2022/09/06 05:45:11;;;;;;;17.00;5.78;;;;;;;17.71;91.36;101310.44;4998296;28;20033;-75
2022/09/06 05:47:37;;;;;;;18.85;6.20;;;;;;;17.69;91.35;101315.09;4999764;28;20037;-77
2022/09/06 05:50:03;;;;;;;10.45;5.90;;;;;;;17.76;90.85;101317.72;4992913;28;20112;-76
2022/09/06 05:52:29;;;;;;;9.70;5.78;;;;;;;17.78;90.64;101309.69;4994893;28;20089;-76
2022/09/06 05:54:54;;;;;;;15.30;5.55;;;;;;;17.75;91.07;101307.47;4996294;28;20507;-76
2022/09/06 05:57:20;;;;;;;11.52;5.50;;;;;;;17.78;90.81;101315.75;5021805;28;20141;-77
2022/09/06 05:59:45;;;;;;;12.55;7.38;;;;;;;17.84;90.56;101308.94;5007140;28;20510;-77
2022/09/06 06:02:11;;;;;;;13.98;7.25;;;;;;;17.95;90.20;101305.81;4995494;28;20509;-76
2022/09/06 06:04:36;;;;;;;16.83;6.95;;;;;;;17.91;89.99;101315.03;5005878;28;20029;-77
2022/09/06 06:07:02;;;;;;;10.43;7.15;;;;;;;17.90;89.77;101311.63;5014218;28;20037;-74
2022/09/06 06:09:27;;;;;;;15.90;7.32;;;;;;;17.82;90.60;101308.28;4991230;28;20033;-76
2022/09/06 06:11:53;;;;;;;13.93;7.25;;;;;;;17.81;90.64;101309.31;4993044;28;20034;-76
2022/09/06 06:14:18;;;;;;;16.70;7.97;;;;;;;17.98;90.45;101313.28;4995257;28;20037;-77
2022/09/06 06:16:43;;;;;;;15.30;7.15;;;;;;;17.93;90.47;101307.78;5000966;28;20357;-74
2022/09/06 06:19:09;;;;;;;16.13;8.52;;;;;;;18.06;90.23;101305.28;5013753;28;20120;-77
2022/09/06 06:21:36;;;;;;;16.50;7.95;;;;;;;17.99;90.38;101301.78;4996553;28;20044;-77
2022/09/06 06:24:03;;;;;;;12.00;7.60;;;;;;;18.03;90.69;101300.41;5022297;28;20038;-76
2022/09/06 06:26:32;;;;;;;13.05;8.40;;;;;;;18.05;90.32;101298.41;5003486;28;20040;-75
2022/09/06 06:29:00;;;;;;;13.93;7.85;;;;;;;18.09;90.36;101294.38;5016042;28;20456;-77
2022/09/06 06:31:26;;;;;;;17.50;9.15;;;;;;;18.20;89.78;101300.09;4998348;28;20042;-76
2022/09/06 06:33:52;;;;;;;12.73;8.73;;;;;;;18.42;89.18;101300.78;4990951;28;20048;-75
2022/09/06 06:36:20;;;;;;;12.23;7.97;;;;;;;18.44;88.45;101299.59;4998435;28;20030;-76
2022/09/06 06:38:47;;;;;;;18.20;9.63;;;;;;;18.55;87.70;101300.84;4998750;28;20030;-76
2022/09/06 06:41:16;;;;;;;17.33;8.73;;;;;;;18.59;87.77;101299.47;5000489;28;20129;-76
2022/09/06 06:43:41;;;;;;;17.58;8.57;;;;;;;18.81;86.47;101296.72;4996915;28;20029;-76
2022/09/06 06:46:09;;;;;;;20.67;8.93;;;;;;;19.05;85.52;101288.28;4996745;28;20034;-77
2022/09/06 06:48:36;;;;;;;17.10;9.00;;;;;;;19.23;83.59;101292.13;5009368;28;20072;-77
2022/09/06 06:51:02;;;;;;;13.95;8.18;;;;;;;19.46;82.66;101289.09;5004249;28;20030;-76
2022/09/06 06:53:28;;;;;;;15.90;7.55;;;;;;;20.01;80.97;101294.13;5002882;28;20041;-76
2022/09/06 06:55:54;;;;;;;16.30;7.60;;;;;;;20.81;76.50;101288.53;5008581;28;20381;-75
2022/09/06 06:58:20;;;;;;;14.25;7.43;;;;;;;21.75;72.75;101288.63;5007624;28;20073;-76
2022/09/06 07:00:46;;;;;;;8.55;5.53;;;;;;;22.79;69.15;101282.50;4992089;28;20034;-76
2022/09/06 07:03:12;;;;;;;13.88;7.55;;;;;;;23.33;65.85;101285.97;4994757;28;20027;-77
2022/09/06 07:05:39;;;;;;;12.57;7.28;;;;;;;23.66;63.55;101280.13;5009925;28;20115;-75
2022/09/06 07:08:06;;;;;;;13.23;7.68;;;;;;;24.15;61.63;101289.59;4998000;28;20438;-76
2022/09/06 07:10:32;;;;;;;12.10;7.20;;;;;;;24.12;60.47;101282.94;5001426;28;20064;-75
2022/09/06 07:12:58;;;;;;;17.17;8.18;;;;;;;23.96;61.06;101283.66;4996655;28;20344;-75
2022/09/06 07:15:23;;;;;;;13.40;7.30;;;;;;;23.97;61.39;101279.97;5000931;28;20190;-76
2022/09/06 07:17:49;;;;;;;17.85;6.57;;;;;;;24.45;59.58;101273.50;4992933;28;20048;-75
2022/09/06 07:20:15;;;;;;;11.70;7.25;;;;;;;24.26;59.97;101273.69;5012525;28;20043;-76
2022/09/06 07:22:41;;;;;;;17.88;7.90;;;;;;;24.14;60.39;101280.06;5003479;28;20034;-77
2022/09/06 07:25:08;;;;;;;16.95;7.25;;;;;;;24.56;58.94;101269.19;4993202;28;20040;-77
2022/09/06 07:27:33;;;;;;;16.00;6.65;;;;;;;24.31;59.79;101272.16;4997396;28;20023;-75
2022/09/06 07:29:59;;;;;;;20.33;6.88;;;;;;;24.95;58.35;101272.78;4997463;28;20223;-76
2022/09/06 07:32:24;;;;;;;18.70;7.85;;;;;;;24.90;58.12;101277.19;4998585;28;20398;-76
2022/09/06 07:34:50;;;;;;;14.32;7.97;;;;;;;25.05;57.37;101269.47;5024414;28;20030;-77
2022/09/06 07:37:16;;;;;;;16.50;7.90;;;;;;;25.43;56.72;101271.44;4993845;28;20049;-77
2022/09/06 07:39:41;;;;;;;15.93;8.15;;;;;;;25.67;56.05;101271.19;4995950;28;20030;-76
2022/09/06 07:42:07;;;;;;;11.90;7.50;;;;;;;25.56;56.14;101275.59;5012320;28;20823;-75
2022/09/06 07:44:33;;;;;;;12.30;7.25;;;;;;;25.43;55.77;101274.09;4996232;28;20034;-76
2022/09/06 07:47:01;;;;;;;19.45;7.05;;;;;;;25.89;54.95;101268.56;4996896;28;20034;-76
2022/09/06 07:49:27;;;;;;;18.13;7.13;;;;;;;26.62;53.01;101265.69;5010016;28;20077;-78
2022/09/06 07:51:53;;;;;;;12.48;6.60;;;;;;;25.96;53.49;101273.75;5000822;28;20061;-76
2022/09/06 07:54:19;;;;;;;15.20;7.35;;;;;;;26.22;54.02;101270.31;5000814;28;20446;-77
2022/09/06 07:56:44;;;;;;;11.63;5.80;;;;;;;26.70;52.26;101275.06;5005707;28;20029;-75
2022/09/06 07:59:10;;;;;;;13.23;5.80;;;;;;;26.46;52.42;101266.56;4998794;28;20031;-76
2022/09/06 08:01:37;;;;;;;9.38;5.22;;;;;;;26.33;53.46;101273.88;5006814;28;20093;-76
2022/09/06 08:04:04;;;;;;;11.63;4.75;;;;;;;26.85;52.01;101277.06;4995776;28;20037;-77
2022/09/06 08:06:33;;;;;;;12.05;4.88;;;;;;;27.41;50.92;101271.34;5026253;28;20044;-76
2022/09/06 08:08:59;;;;;;;10.75;5.90;;;;;;;27.45;49.60;101269.78;5005059;28;20046;-75
2022/09/06 08:11:28;;;;;;;9.07;4.95;;;;;;;27.76;49.50;101260.88;5017297;28;20537;-74
2022/09/06 08:13:55;;;;;;;9.55;4.53;;;;;;;27.40;49.61;101273.19;5003224;28;20046;-78
2022/09/06 08:16:22;;;;;;;9.70;4.30;;;;;;;27.65;49.46;101271.72;5016651;28;20033;-78
2022/09/06 08:18:53;;;;;;;9.50;4.15;;;;;;;27.81;48.83;101264.63;5002912;28;20030;-76
2022/09/06 08:21:19;;;;;;;9.95;4.82;;;;;;;27.90;48.71;101269.22;5005168;28;20117;-76
2022/09/06 08:23:47;;;;;;;11.85;3.63;;;;;;;28.52;47.51;101267.53;4997492;28;20735;-77
2022/09/06 08:26:14;;;;;;;5.60;2.63;;;;;;;28.75;45.95;101262.72;4995949;28;20030;-75
2022/09/06 08:28:40;;;;;;;10.75;3.20;;;;;;;28.79;44.85;101266.47;5001332;28;20034;-78
2022/09/06 08:31:11;;;;;;;6.28;2.42;;;;;;;28.56;45.36;101262.47;5004504;28;20398;-75
2022/09/06 08:33:37;;;;;;;6.45;2.22;;;;;;;28.86;44.52;101261.66;5005669;28;20483;-76
2022/09/06 08:36:04;;;;;;;5.63;2.30;;;;;;;29.36;44.31;101248.50;5000377;28;20106;-77
2022/09/06 08:38:30;;;;;;;7.82;2.70;;;;;;;28.88;44.22;101258.72;5030107;28;20087;-76
2022/09/06 08:41:09;;;;;;;4.85;2.70;;;;;;;29.42;43.72;101251.97;5001516;28;20413;-75
2022/09/06 08:43:36;;;;;;;6.55;3.13;;;;;;;29.44;43.19;101253.31;5017897;28;20033;-75
2022/09/06 08:46:03;;;;;;;4.53;2.38;;;;;;;28.93;43.94;101253.38;4996196;28;20250;-75
2022/09/06 08:48:32;;;;;;;9.65;3.40;;;;;;;29.15;43.63;101253.13;5027243;28;20510;-76
2022/09/06 08:51:36;;;;;;;5.82;2.83;;;;;;;29.20;44.33;101245.09;4996615;28;20049;-76
2022/09/06 08:54:17;;;;;;;6.57;2.25;;;;;;;29.46;43.23;101243.16;5012048;28;20042;-76
2022/09/06 08:57:29;;;;;;;4.78;2.17;;;;;;;29.37;43.64;101242.13;5004462;28;20053;-76
2022/09/06 08:59:59;;;;;;;6.45;2.00;;;;;;;29.49;42.93;101237.25;4997862;28;20148;-76
2022/09/06 09:02:26;;;;;;;5.82;1.88;;;;;;;29.98;40.78;101241.06;5000246;28;20545;-77
2022/09/06 09:05:01;;;;;;;4.90;2.15;;;;;;;29.69;42.58;101241.72;5001860;28;20079;-78
2022/09/06 09:07:51;;;;;;;5.85;1.88;;;;;;;29.73;41.14;101244.69;5011004;28;20042;-76
2022/09/06 09:10:47;;;;;;;7.53;2.42;;;;;;;30.05;41.59;101244.25;4999014;28;20390;-76
2022/09/06 09:13:29;;;;;;;4.43;1.13;;;;;;;30.35;39.56;101247.03;5001419;28;20410;-76
2022/09/06 09:15:54;;;;;;;1.97;0.90;;;;;;;30.52;39.09;101235.94;4993556;28;20125;-77
2022/09/06 09:18:31;;;;;;;4.00;1.42;;;;;;;30.72;38.85;101235.75;5004462;28;20470;-77
2022/09/06 09:20:57;;;;;;;6.05;1.55;;;;;;;30.59;38.31;101225.69;4993127;28;20382;-75
2022/09/06 09:23:23;;;;;;;9.98;1.85;;;;;;;30.38;39.00;101233.88;5000532;28;20034;-77
2022/09/06 09:25:51;;;;;;;5.13;1.27;;;;;;;30.57;38.57;101234.03;5028961;28;20034;-77
2022/09/06 09:28:20;;;;;;;2.10;1.02;;;;;;;30.47;38.65;101216.16;5003517;28;20045;-77
2022/09/06 09:30:54;;;;;;;3.25;1.10;;;;;;;30.44;38.10;101219.41;5002817;28;20042;-75
2022/09/06 09:33:31;;;;;;;3.65;1.10;;;;;;;30.43;38.30;101206.31;4993305;28;20446;-75
2022/09/06 09:36:06;;;;;;;1.80;1.08;;;;;;;29.85;38.87;101215.75;5000877;28;20464;-77
2022/09/06 09:38:44;;;;;;;2.08;1.00;;;;;;;30.12;38.86;101208.38;5026686;28;20039;-76
2022/09/06 09:41:33;;;;;;;2.92;0.90;;;;;;;30.44;38.57;101199.88;4997424;28;20041;-77
2022/09/06 09:44:06;;;;;;;4.25;1.17;;;;;;;30.13;39.51;101193.94;4995661;28;20054;-77
2022/09/06 09:46:34;;;;;;;4.18;1.20;;;;;;;30.12;38.89;101189.66;4988897;28;20100;-78
2022/09/06 09:49:10;;;;;;;5.07;1.23;;;;;;;29.87;39.13;101199.44;5005339;28;20044;-74
2022/09/06 09:51:42;;;;;;;5.60;1.45;;;;;;;30.22;38.64;101195.75;5012577;28;20046;-76
2022/09/06 09:54:10;;;;;;;1.70;1.08;;;;;;;29.89;39.44;101190.09;4997474;28;20038;-78
2022/09/06 09:56:42;;;;;;;2.13;1.30;;;;;;;29.92;39.40;101193.28;5029765;28;20040;-78
2022/09/06 09:59:29;;;;;;;3.78;1.05;;;;;;;30.32;39.17;101199.41;4994436;28;20044;-77
2022/09/06 10:01:59;;;;;;;3.50;1.33;;;;;;;30.42;38.40;101210.06;5023500;28;20082;-76
2022/09/06 10:04:34;;;;;;;4.25;0.95;;;;;;;30.41;39.17;101214.63;5014175;28;20694;-77
2022/09/06 10:07:27;;;;;;;3.17;1.00;;;;;;;30.50;38.87;101204.13;5014403;28;20730;-77
2022/09/06 10:10:06;;;;;;;6.00;1.95;;;;;;;30.57;38.73;101207.28;5025482;28;20107;-77
2022/09/06 10:12:34;;;;;;;4.63;1.23;;;;;;;30.39;38.65;101198.06;4998320;28;20100;-77
2022/09/06 10:15:01;;;;;;;4.05;1.45;;;;;;;30.35;38.90;101202.38;5010334;28;20034;-77
2022/09/06 10:17:37;;;;;;;3.10;1.30;;;;;;;30.41;38.51;101203.13;4997857;28;20034;-77
2022/09/06 10:20:11;;;;;;;4.93;1.65;;;;;;;30.28;38.57;101199.19;4995309;28;20052;-78
2022/09/06 10:22:55;;;;;;;6.05;1.20;;;;;;;30.34;39.08;101198.09;4995623;28;20463;-77
2022/09/06 10:25:49;;;;;;;6.82;1.42;;;;;;;30.35;38.67;101197.03;5002881;28;20046;-77
2022/09/06 10:28:32;;;;;;;2.33;1.10;;;;;;;30.29;38.65;101211.50;4996553;28;20062;-76
2022/09/06 10:31:35;;;;;;;4.40;1.02;;;;;;;30.28;38.92;101188.47;5012987;28;20038;-75
2022/09/06 10:34:00;;;;;;;;;;;;;;;30.47;38.69;101186.75;4994704;28;20038;-76
2022/09/06 10:36:35;;;;;;;1.90;1.00;;;;;;;30.53;37.89;101190.16;4993651;28;20457;-76
2022/09/06 10:39:36;;;;;;;5.95;1.25;;;;;;;30.36;38.81;101195.13;5008595;28;20476;-77
2022/09/06 10:42:20;;;;;;;7.45;1.52;;;;;;;30.45;38.84;101183.56;4993011;28;20038;-76
2022/09/06 10:45:15;;;;;;;4.88;1.05;;;;;;;30.55;38.99;101184.53;4986837;28;20124;-76
2022/09/06 10:48:09;;;;;;;11.70;1.20;;;;;;;30.52;38.56;101180.56;5003435;28;20040;-76
2022/09/06 10:50:35;;;;;;;2.35;1.02;;;;;;;30.77;38.57;101176.06;4995110;28;20026;-76
2022/09/06 10:53:16;;;;;;;5.50;1.30;;;;;;;30.67;37.86;101177.75;4992466;28;20636;-76
2022/09/06 10:55:48;;;;;;;3.47;1.27;;;;;;;30.69;37.42;101177.47;4998609;28;20037;-75
2022/09/06 10:58:20;;;;;;;5.30;1.65;;;;;;;30.78;38.17;101173.09;4997787;28;20038;-74
2022/09/06 11:00:47;;;;;;;5.03;1.38;;;;;;;30.62;38.85;101177.78;5012622;28;20536;-78
2022/09/06 11:03:20;;;;;;;1.77;0.80;;;;;;;30.87;38.02;101175.94;4998147;28;20092;-76
2022/09/06 11:05:51;;;;;;;5.40;1.30;;;;;;;30.67;38.41;101175.06;4999085;28;20092;-75
2022/09/06 11:08:40;;;;;;;3.75;1.38;;;;;;;30.89;38.47;101175.66;4991473;28;20084;-76
2022/09/06 11:11:14;;;;;;;4.00;1.10;;;;;;;30.99;37.75;101170.25;4999708;28;20045;-75
2022/09/06 11:13:39;;;;;;;2.22;1.35;;;;;;;30.97;37.57;101162.50;4996426;28;20053;-76
2022/09/06 11:16:10;;;;;;;6.82;1.42;;;;;;;30.88;38.73;101166.84;4991465;28;20034;-75
2022/09/06 11:18:38;;;;;;;6.88;1.42;;;;;;;31.10;37.94;101170.91;4997939;28;20478;-77
2022/09/06 11:21:41;;;;;;;3.20;1.10;;;;;;;30.75;37.95;101173.66;5000324;28;20517;-75
2022/09/06 11:24:25;;;;;;;2.05;1.27;;;;;;;30.53;38.37;101174.13;4997065;28;20041;-76
2022/09/06 11:27:24;;;;;;;3.22;1.00;;;;;;;31.10;38.36;101179.75;4992820;28;20045;-77
2022/09/06 11:29:55;;;;;;;7.82;1.30;;;;;;;31.01;38.33;101173.44;4996475;28;20173;-76
2022/09/06 11:32:23;;;;;;;5.40;1.25;;;;;;;30.91;38.83;101182.38;4996885;28;20555;-76
2022/09/06 11:34:55;;;;;;;10.20;1.65;;;;;;;31.03;38.16;101184.66;4999345;28;20098;-77
2022/09/06 11:37:26;;;;;;;5.35;1.35;;;;;;;30.99;38.50;101175.59;5003097;28;20525;-77
2022/09/06 11:40:12;;;;;;;7.40;1.48;;;;;;;31.08;38.04;101178.41;5013751;28;21559;-76